Historique des mesures à Cassis (13260), France
Quotidien Résumé Mars 12, 2018 Unités:  Métrique    US   Métrique/US
« Précédent (Jour)
Suivant (Jour) »
Quotidien Hebdomadaire Mensuel Annuel Période au choix
  Maximum: Minimum: Moyenne:
Température: TemperatureC °C 10.9 °C 12.7 °C
Point de rosée: DewpointC °C 3.9 °C 6.9 °C
Humidité: Humidity % 55 % 64 %
Vitesse du vent: 0 km/h 0 km/h 20.3 km/h
Rafales: 0 km/h - -
Vent:- - West
Pression: PressurehPa hPa 994.1 hPa -
Précipitations: 0.0 mm    
Historical Graphs
 
 
Mesures pour : Mars 12, 2018
Heure Temperature Point de rosée Pression Vent Vitesse du vent Rafales Humidité Pluie (par heure) Conditions
TemperatureC °C DewpointC °C PressurehPa hPa Calm     Humidity % HourlyPrecipMM mm SoftwareType W/m2
00:12 14.1 °C 10.1 °C 994.1 hPa Calm   4.7 km/h 77 % 0.0 mm open2300-1.11 W/m2
01:11 13.6 °C 9.8 °C 994.1 hPa Calm     78 % 0.0 mm open2300-1.11 W/m2
02:12 12.1 °C 7.6 °C 994.8 hPa WNW 10.3 km/h 27.2 km/h 74 % 0.0 mm open2300-1.11 W/m2
03:11 11.8 °C 7.7 °C 995.1 hPa Calm   7.6 km/h 76 % 0.0 mm open2300-1.11 W/m2
04:12 12.1 °C 7.6 °C 996.5 hPa NW 5.1 km/h 9.8 km/h 74 % 0.0 mm open2300-1.11 W/m2
05:11 11.6 °C 7.5 °C 997.2 hPa NNW 10.3 km/h 10.9 km/h 76 % 0.0 mm open2300-1.11 W/m2
06:12 11.6 °C 7.9 °C 997.9 hPa Calm   2.9 km/h 78 % 0.0 mm open2300-1.11 W/m2
07:12 11.8 °C 8.5 °C 998.5 hPa NW 5.6 km/h 11.6 km/h 80 % 0.0 mm open2300-1.11 W/m2
08:12 12.8 °C 8.3 °C 998.9 hPa WNW 37.5 km/h 37.5 km/h 74 % 0.0 mm open2300-1.11 W/m2
09:11 13.0 °C 7.5 °C 1000.2 hPa WNW 47.3 km/h 47.3 km/h 69 % 0.0 mm open2300-1.11 W/m2
10:11 13.9 °C 7.4 °C 1000.6 hPa North 15.6 km/h 26.2 km/h 65 % 0.0 mm open2300-1.11 W/m2
11:12 14.6 °C 8.1 °C 1001.2 hPa WNW 17.9 km/h 20.9 km/h 65 % 0.0 mm open2300-1.11 W/m2
12:12 14.0 °C 7.5 °C 1001.9 hPa West 40.7 km/h 46.8 km/h 65 % 0.0 mm open2300-1.11 W/m2
13:12 14.8 °C 8.3 °C 1002.3 hPa West 34.8 km/h 51 km/h 65 % 0.0 mm open2300-1.11 W/m2
14:12 15.4 °C 7.2 °C 1002.3 hPa NW 29.5 km/h 46.3 km/h 58 % 0.0 mm open2300-1.11 W/m2
15:11 15.9 °C 7.1 °C 1002.6 hPa NW 9.3 km/h 33.6 km/h 56 % 0.0 mm open2300-1.11 W/m2
16:12 15.5 °C 6.5 °C 1003.3 hPa SW 29.5 km/h 29.5 km/h 55 % 0.0 mm open2300-1.11 W/m2
17:12 15.4 °C 7.4 °C 1003.3 hPa West 6.4 km/h 19.2 km/h 59 % 0.0 mm open2300-1.11 W/m2
18:11 13.9 °C 6.1 °C 1004.3 hPa WNW 48.1 km/h 48.1 km/h 59 % 0.0 mm open2300-1.11 W/m2
19:11 13.2 °C 6.1 °C 1005.3 hPa West 21.6 km/h 21.6 km/h 62 % 0.0 mm open2300-1.11 W/m2
20:12 12.3 °C 4.8 °C 1005.6 hPa WNW 43.5 km/h 44.6 km/h 60 % 0.0 mm open2300-1.11 W/m2
21:12 11.6 °C 4.6 °C 1006.0 hPa West 40.7 km/h 46.8 km/h 62 % 0.0 mm open2300-1.11 W/m2
22:11 11.3 °C 4.3 °C 1006.7 hPa NNW 19.6 km/h 19.6 km/h 62 % 0.0 mm open2300-1.11 W/m2
23:12 10.9 °C 3.9 °C 1007.3 hPa WNW 33.6 km/h 44.6 km/h 62 % 0.0 mm open2300-1.11 W/m2
Observations météo à CASSIS
WU-History script by Weather Underground - 1 mb